sensor_id;sensor_type;location;lat;lon;timestamp;P1;durP1;ratioP1;P2;durP2;ratioP2
30247;SDS011;17063;50.892;4.702;2022-07-29T00:01:39;3.13;;;1.33;;
30247;SDS011;17063;50.892;4.702;2022-07-29T00:04:06;2.83;;;1.03;;
30247;SDS011;17063;50.892;4.702;2022-07-29T00:06:33;6.93;;;1.40;;
30247;SDS011;17063;50.892;4.702;2022-07-29T00:09:00;4.30;;;1.10;;
30247;SDS011;17063;50.892;4.702;2022-07-29T00:11:26;1.47;;;1.17;;
30247;SDS011;17063;50.892;4.702;2022-07-29T00:13:53;2.63;;;1.33;;
30247;SDS011;17063;50.892;4.702;2022-07-29T00:16:20;3.87;;;1.20;;
30247;SDS011;17063;50.892;4.702;2022-07-29T00:18:47;3.63;;;1.53;;
30247;SDS011;17063;50.892;4.702;2022-07-29T00:21:14;4.37;;;1.30;;
30247;SDS011;17063;50.892;4.702;2022-07-29T00:23:41;6.17;;;1.73;;
30247;SDS011;17063;50.892;4.702;2022-07-29T00:26:08;4.10;;;1.40;;
30247;SDS011;17063;50.892;4.702;2022-07-29T00:28:34;3.33;;;1.50;;
30247;SDS011;17063;50.892;4.702;2022-07-29T00:31:01;6.00;;;1.57;;
30247;SDS011;17063;50.892;4.702;2022-07-29T00:33:28;6.43;;;1.93;;
30247;SDS011;17063;50.892;4.702;2022-07-29T00:35:55;4.00;;;1.60;;
30247;SDS011;17063;50.892;4.702;2022-07-29T00:38:22;3.50;;;1.50;;
30247;SDS011;17063;50.892;4.702;2022-07-29T00:40:49;4.27;;;1.57;;
30247;SDS011;17063;50.892;4.702;2022-07-29T00:43:16;5.30;;;1.40;;
30247;SDS011;17063;50.892;4.702;2022-07-29T00:45:43;3.73;;;1.57;;
30247;SDS011;17063;50.892;4.702;2022-07-29T00:48:10;6.33;;;1.57;;
30247;SDS011;17063;50.892;4.702;2022-07-29T00:50:37;5.57;;;1.60;;
30247;SDS011;17063;50.892;4.702;2022-07-29T00:53:07;4.17;;;1.50;;
30247;SDS011;17063;50.892;4.702;2022-07-29T00:55:35;3.97;;;1.70;;
30247;SDS011;17063;50.892;4.702;2022-07-29T00:58:02;3.77;;;2.10;;
30247;SDS011;17063;50.892;4.702;2022-07-29T01:00:30;5.97;;;2.30;;
30247;SDS011;17063;50.892;4.702;2022-07-29T01:02:57;17.30;;;2.50;;
30247;SDS011;17063;50.892;4.702;2022-07-29T01:05:24;6.80;;;2.27;;
30247;SDS011;17063;50.892;4.702;2022-07-29T01:08:15;4.33;;;1.80;;
30247;SDS011;17063;50.892;4.702;2022-07-29T01:10:42;5.03;;;1.70;;
30247;SDS011;17063;50.892;4.702;2022-07-29T01:13:10;5.50;;;1.73;;
30247;SDS011;17063;50.892;4.702;2022-07-29T01:15:41;3.43;;;1.40;;
30247;SDS011;17063;50.892;4.702;2022-07-29T01:18:20;2.27;;;1.60;;
30247;SDS011;17063;50.892;4.702;2022-07-29T01:23:26;4.63;;;1.60;;
30247;SDS011;17063;50.892;4.702;2022-07-29T01:26:01;6.97;;;1.57;;
30247;SDS011;17063;50.892;4.702;2022-07-29T01:31:28;4.77;;;1.80;;
30247;SDS011;17063;50.892;4.702;2022-07-29T01:34:05;5.87;;;1.70;;
30247;SDS011;17063;50.892;4.702;2022-07-29T01:36:36;4.07;;;1.67;;
30247;SDS011;17063;50.892;4.702;2022-07-29T01:41:43;3.53;;;1.90;;
30247;SDS011;17063;50.892;4.702;2022-07-29T01:44:18;6.17;;;1.53;;
30247;SDS011;17063;50.892;4.702;2022-07-29T01:46:52;5.90;;;1.90;;
30247;SDS011;17063;50.892;4.702;2022-07-29T01:49:25;3.53;;;1.50;;
30247;SDS011;17063;50.892;4.702;2022-07-29T01:51:57;4.93;;;1.73;;
30247;SDS011;17063;50.892;4.702;2022-07-29T01:54:28;3.50;;;1.50;;
30247;SDS011;17063;50.892;4.702;2022-07-29T01:56:58;5.60;;;1.60;;
30247;SDS011;17063;50.892;4.702;2022-07-29T01:59:26;4.43;;;1.77;;
30247;SDS011;17063;50.892;4.702;2022-07-29T02:01:54;3.80;;;1.77;;
30247;SDS011;17063;50.892;4.702;2022-07-29T02:04:21;4.67;;;1.40;;
30247;SDS011;17063;50.892;4.702;2022-07-29T02:06:56;2.67;;;1.33;;
30247;SDS011;17063;50.892;4.702;2022-07-29T02:09:27;2.20;;;1.37;;
30247;SDS011;17063;50.892;4.702;2022-07-29T02:11:56;6.40;;;1.27;;
30247;SDS011;17063;50.892;4.702;2022-07-29T02:14:23;3.77;;;1.60;;
30247;SDS011;17063;50.892;4.702;2022-07-29T02:16:51;3.53;;;1.60;;
30247;SDS011;17063;50.892;4.702;2022-07-29T02:19:21;3.33;;;1.77;;
30247;SDS011;17063;50.892;4.702;2022-07-29T02:21:49;3.50;;;1.60;;
30247;SDS011;17063;50.892;4.702;2022-07-29T02:24:18;2.90;;;1.63;;
30247;SDS011;17063;50.892;4.702;2022-07-29T02:26:45;4.63;;;1.50;;
30247;SDS011;17063;50.892;4.702;2022-07-29T02:29:12;4.70;;;1.60;;
30247;SDS011;17063;50.892;4.702;2022-07-29T02:31:40;7.87;;;1.67;;
30247;SDS011;17063;50.892;4.702;2022-07-29T02:34:09;3.23;;;1.47;;
30247;SDS011;17063;50.892;4.702;2022-07-29T02:36:37;2.57;;;1.40;;
30247;SDS011;17063;50.892;4.702;2022-07-29T02:39:04;3.87;;;1.60;;
30247;SDS011;17063;50.892;4.702;2022-07-29T02:41:43;4.17;;;1.40;;
30247;SDS011;17063;50.892;4.702;2022-07-29T02:44:18;2.43;;;1.50;;
30247;SDS011;17063;50.892;4.702;2022-07-29T02:46:51;5.57;;;1.60;;
30247;SDS011;17063;50.892;4.702;2022-07-29T02:52:04;7.67;;;1.90;;
30247;SDS011;17063;50.892;4.702;2022-07-29T02:54:41;3.07;;;1.57;;
30247;SDS011;17063;50.892;4.702;2022-07-29T02:57:14;4.53;;;1.80;;
30247;SDS011;17063;50.892;4.702;2022-07-29T02:59:47;3.27;;;1.60;;
30247;SDS011;17063;50.892;4.702;2022-07-29T03:02:17;3.10;;;1.30;;
30247;SDS011;17063;50.892;4.702;2022-07-29T03:04:44;2.13;;;1.77;;
30247;SDS011;17063;50.892;4.702;2022-07-29T03:07:13;6.90;;;1.90;;
30247;SDS011;17063;50.892;4.702;2022-07-29T03:09:41;3.70;;;1.60;;
30247;SDS011;17063;50.892;4.702;2022-07-29T03:12:09;6.73;;;1.20;;
30247;SDS011;17063;50.892;4.702;2022-07-29T03:14:36;2.37;;;1.70;;
30247;SDS011;17063;50.892;4.702;2022-07-29T03:17:03;3.40;;;1.60;;
30247;SDS011;17063;50.892;4.702;2022-07-29T03:19:31;3.23;;;1.40;;
30247;SDS011;17063;50.892;4.702;2022-07-29T03:21:58;4.20;;;2.03;;
30247;SDS011;17063;50.892;4.702;2022-07-29T03:24:29;5.70;;;1.73;;
30247;SDS011;17063;50.892;4.702;2022-07-29T03:27:01;3.50;;;1.60;;
30247;SDS011;17063;50.892;4.702;2022-07-29T03:29:28;4.93;;;1.83;;
30247;SDS011;17063;50.892;4.702;2022-07-29T03:32:00;4.43;;;1.63;;
30247;SDS011;17063;50.892;4.702;2022-07-29T03:34:32;4.10;;;1.67;;
30247;SDS011;17063;50.892;4.702;2022-07-29T03:36:59;2.70;;;1.50;;
30247;SDS011;17063;50.892;4.702;2022-07-29T03:39:27;5.53;;;1.80;;
30247;SDS011;17063;50.892;4.702;2022-07-29T03:41:57;4.03;;;1.60;;
30247;SDS011;17063;50.892;4.702;2022-07-29T03:44:24;3.60;;;1.70;;
30247;SDS011;17063;50.892;4.702;2022-07-29T03:46:53;3.47;;;1.60;;
30247;SDS011;17063;50.892;4.702;2022-07-29T03:49:23;4.53;;;1.47;;
30247;SDS011;17063;50.892;4.702;2022-07-29T03:51:52;3.47;;;1.83;;
30247;SDS011;17063;50.892;4.702;2022-07-29T03:54:19;5.23;;;1.80;;
30247;SDS011;17063;50.892;4.702;2022-07-29T03:56:46;4.30;;;1.57;;
30247;SDS011;17063;50.892;4.702;2022-07-29T03:59:15;6.23;;;2.00;;
30247;SDS011;17063;50.892;4.702;2022-07-29T04:01:42;3.60;;;1.57;;
30247;SDS011;17063;50.892;4.702;2022-07-29T04:04:10;5.30;;;1.77;;
30247;SDS011;17063;50.892;4.702;2022-07-29T04:06:40;3.17;;;1.37;;
30247;SDS011;17063;50.892;4.702;2022-07-29T04:09:08;4.20;;;1.97;;
30247;SDS011;17063;50.892;4.702;2022-07-29T04:11:36;4.53;;;1.60;;
30247;SDS011;17063;50.892;4.702;2022-07-29T04:14:26;3.30;;;1.50;;
30247;SDS011;17063;50.892;4.702;2022-07-29T04:16:53;4.37;;;1.40;;
30247;SDS011;17063;50.892;4.702;2022-07-29T04:19:19;2.50;;;1.60;;
30247;SDS011;17063;50.892;4.702;2022-07-29T04:21:47;5.53;;;1.73;;
30247;SDS011;17063;50.892;4.702;2022-07-29T04:24:13;5.37;;;1.60;;
30247;SDS011;17063;50.892;4.702;2022-07-29T04:26:47;2.80;;;1.43;;
30247;SDS011;17063;50.892;4.702;2022-07-29T04:29:15;2.30;;;1.60;;
30247;SDS011;17063;50.892;4.702;2022-07-29T04:31:41;8.00;;;2.00;;
30247;SDS011;17063;50.892;4.702;2022-07-29T04:34:09;2.30;;;1.77;;
30247;SDS011;17063;50.892;4.702;2022-07-29T04:36:38;6.60;;;2.27;;
30247;SDS011;17063;50.892;4.702;2022-07-29T04:39:05;3.83;;;2.20;;
30247;SDS011;17063;50.892;4.702;2022-07-29T04:41:32;3.07;;;2.00;;
30247;SDS011;17063;50.892;4.702;2022-07-29T04:44:00;3.33;;;2.00;;
30247;SDS011;17063;50.892;4.702;2022-07-29T04:46:32;10.50;;;1.97;;
30247;SDS011;17063;50.892;4.702;2022-07-29T04:49:00;3.90;;;1.83;;
30247;SDS011;17063;50.892;4.702;2022-07-29T04:51:27;9.23;;;2.10;;
30247;SDS011;17063;50.892;4.702;2022-07-29T04:53:56;5.23;;;1.70;;
30247;SDS011;17063;50.892;4.702;2022-07-29T04:56:45;3.97;;;1.77;;
30247;SDS011;17063;50.892;4.702;2022-07-29T04:59:23;2.80;;;2.00;;
30247;SDS011;17063;50.892;4.702;2022-07-29T05:01:51;4.03;;;1.77;;
30247;SDS011;17063;50.892;4.702;2022-07-29T05:04:18;4.17;;;1.60;;
30247;SDS011;17063;50.892;4.702;2022-07-29T05:06:45;4.73;;;1.90;;
30247;SDS011;17063;50.892;4.702;2022-07-29T05:09:12;7.43;;;2.33;;
30247;SDS011;17063;50.892;4.702;2022-07-29T05:11:39;4.17;;;1.80;;
30247;SDS011;17063;50.892;4.702;2022-07-29T05:14:06;2.63;;;1.70;;
30247;SDS011;17063;50.892;4.702;2022-07-29T05:16:33;4.77;;;1.83;;
30247;SDS011;17063;50.892;4.702;2022-07-29T05:19:00;4.97;;;2.10;;
30247;SDS011;17063;50.892;4.702;2022-07-29T05:21:27;5.10;;;2.30;;
30247;SDS011;17063;50.892;4.702;2022-07-29T05:23:53;3.27;;;2.00;;
30247;SDS011;17063;50.892;4.702;2022-07-29T05:26:20;8.37;;;2.00;;
30247;SDS011;17063;50.892;4.702;2022-07-29T05:28:47;5.63;;;1.97;;
30247;SDS011;17063;50.892;4.702;2022-07-29T05:31:14;4.50;;;1.97;;
30247;SDS011;17063;50.892;4.702;2022-07-29T05:33:41;3.60;;;2.10;;
30247;SDS011;17063;50.892;4.702;2022-07-29T05:36:08;3.63;;;1.90;;
30247;SDS011;17063;50.892;4.702;2022-07-29T05:38:35;4.53;;;1.90;;
30247;SDS011;17063;50.892;4.702;2022-07-29T05:41:03;2.03;;;1.90;;
30247;SDS011;17063;50.892;4.702;2022-07-29T05:43:30;8.73;;;2.67;;
30247;SDS011;17063;50.892;4.702;2022-07-29T05:45:57;6.00;;;2.27;;
30247;SDS011;17063;50.892;4.702;2022-07-29T05:48:24;6.87;;;2.07;;
30247;SDS011;17063;50.892;4.702;2022-07-29T05:50:51;3.13;;;2.20;;
30247;SDS011;17063;50.892;4.702;2022-07-29T05:53:18;4.50;;;2.10;;
30247;SDS011;17063;50.892;4.702;2022-07-29T05:55:52;3.20;;;1.90;;
30247;SDS011;17063;50.892;4.702;2022-07-29T05:58:32;5.10;;;2.40;;
30247;SDS011;17063;50.892;4.702;2022-07-29T06:00:59;3.87;;;2.20;;
30247;SDS011;17063;50.892;4.702;2022-07-29T06:03:27;4.93;;;1.70;;
30247;SDS011;17063;50.892;4.702;2022-07-29T06:05:54;5.93;;;2.20;;
30247;SDS011;17063;50.892;4.702;2022-07-29T06:08:20;4.07;;;1.87;;
30247;SDS011;17063;50.892;4.702;2022-07-29T06:10:47;4.80;;;1.73;;
30247;SDS011;17063;50.892;4.702;2022-07-29T06:13:14;6.80;;;2.50;;
30247;SDS011;17063;50.892;4.702;2022-07-29T06:15:42;4.53;;;2.17;;
30247;SDS011;17063;50.892;4.702;2022-07-29T06:18:09;3.17;;;2.00;;
30247;SDS011;17063;50.892;4.702;2022-07-29T06:20:37;4.60;;;2.30;;
30247;SDS011;17063;50.892;4.702;2022-07-29T06:23:04;7.57;;;2.10;;
30247;SDS011;17063;50.892;4.702;2022-07-29T06:25:30;3.67;;;1.80;;
30247;SDS011;17063;50.892;4.702;2022-07-29T06:28:01;3.93;;;2.33;;
30247;SDS011;17063;50.892;4.702;2022-07-29T06:30:28;5.33;;;2.60;;
30247;SDS011;17063;50.892;4.702;2022-07-29T06:32:55;4.70;;;2.40;;
30247;SDS011;17063;50.892;4.702;2022-07-29T06:35:22;6.83;;;2.27;;
30247;SDS011;17063;50.892;4.702;2022-07-29T06:38:07;10.27;;;2.70;;
30247;SDS011;17063;50.892;4.702;2022-07-29T06:40:54;3.63;;;2.27;;
30247;SDS011;17063;50.892;4.702;2022-07-29T06:43:36;3.83;;;2.80;;
30247;SDS011;17063;50.892;4.702;2022-07-29T06:46:16;4.30;;;2.63;;
30247;SDS011;17063;50.892;4.702;2022-07-29T06:48:44;6.63;;;2.13;;
30247;SDS011;17063;50.892;4.702;2022-07-29T06:51:11;14.43;;;3.57;;
30247;SDS011;17063;50.892;4.702;2022-07-29T06:53:38;4.50;;;2.33;;
30247;SDS011;17063;50.892;4.702;2022-07-29T06:56:24;4.57;;;2.50;;
30247;SDS011;17063;50.892;4.702;2022-07-29T06:58:51;4.27;;;2.63;;
30247;SDS011;17063;50.892;4.702;2022-07-29T07:01:18;4.20;;;2.23;;
30247;SDS011;17063;50.892;4.702;2022-07-29T07:03:47;3.37;;;2.27;;
30247;SDS011;17063;50.892;4.702;2022-07-29T07:06:13;5.37;;;2.30;;
30247;SDS011;17063;50.892;4.702;2022-07-29T07:08:40;7.93;;;2.37;;
30247;SDS011;17063;50.892;4.702;2022-07-29T07:11:08;3.90;;;2.40;;
30247;SDS011;17063;50.892;4.702;2022-07-29T07:13:35;6.63;;;2.97;;
30247;SDS011;17063;50.892;4.702;2022-07-29T07:16:02;6.00;;;2.70;;
30247;SDS011;17063;50.892;4.702;2022-07-29T07:18:29;6.70;;;2.97;;
30247;SDS011;17063;50.892;4.702;2022-07-29T07:20:57;3.03;;;2.30;;
30247;SDS011;17063;50.892;4.702;2022-07-29T07:23:24;9.70;;;2.47;;
30247;SDS011;17063;50.892;4.702;2022-07-29T07:25:51;7.83;;;2.60;;
30247;SDS011;17063;50.892;4.702;2022-07-29T07:28:18;5.27;;;2.37;;
30247;SDS011;17063;50.892;4.702;2022-07-29T07:30:50;4.30;;;2.50;;
30247;SDS011;17063;50.892;4.702;2022-07-29T07:33:18;7.53;;;2.40;;
30247;SDS011;17063;50.892;4.702;2022-07-29T07:35:44;6.60;;;2.40;;
30247;SDS011;17063;50.892;4.702;2022-07-29T07:38:11;7.93;;;2.50;;
30247;SDS011;17063;50.892;4.702;2022-07-29T07:40:38;2.37;;;2.10;;
30247;SDS011;17063;50.892;4.702;2022-07-29T07:43:05;4.87;;;2.70;;
30247;SDS011;17063;50.892;4.702;2022-07-29T07:45:32;4.47;;;2.80;;
30247;SDS011;17063;50.892;4.702;2022-07-29T07:47:59;4.23;;;2.40;;
30247;SDS011;17063;50.892;4.702;2022-07-29T07:50:26;4.40;;;2.60;;
30247;SDS011;17063;50.892;4.702;2022-07-29T07:52:56;5.30;;;2.73;;
30247;SDS011;17063;50.892;4.702;2022-07-29T07:55:28;4.77;;;2.50;;
30247;SDS011;17063;50.892;4.702;2022-07-29T07:58:15;8.53;;;2.50;;
30247;SDS011;17063;50.892;4.702;2022-07-29T08:00:42;7.33;;;2.80;;
30247;SDS011;17063;50.892;4.702;2022-07-29T08:03:09;7.03;;;2.77;;
30247;SDS011;17063;50.892;4.702;2022-07-29T08:05:42;3.20;;;2.40;;
30247;SDS011;17063;50.892;4.702;2022-07-29T08:08:09;6.17;;;2.47;;
30247;SDS011;17063;50.892;4.702;2022-07-29T08:10:36;3.80;;;2.63;;
30247;SDS011;17063;50.892;4.702;2022-07-29T08:13:19;5.07;;;2.40;;
30247;SDS011;17063;50.892;4.702;2022-07-29T08:15:47;3.50;;;2.33;;
30247;SDS011;17063;50.892;4.702;2022-07-29T08:18:24;8.53;;;2.80;;
30247;SDS011;17063;50.892;4.702;2022-07-29T08:21:03;3.47;;;2.57;;
30247;SDS011;17063;50.892;4.702;2022-07-29T08:23:44;4.00;;;2.40;;
30247;SDS011;17063;50.892;4.702;2022-07-29T08:27:06;3.93;;;2.40;;
30247;SDS011;17063;50.892;4.702;2022-07-29T08:30:05;8.17;;;2.60;;
30247;SDS011;17063;50.892;4.702;2022-07-29T08:32:59;5.13;;;2.40;;
30247;SDS011;17063;50.892;4.702;2022-07-29T08:35:50;4.27;;;2.50;;
30247;SDS011;17063;50.892;4.702;2022-07-29T08:38:33;6.63;;;2.70;;
30247;SDS011;17063;50.892;4.702;2022-07-29T08:41:18;8.13;;;2.50;;
30247;SDS011;17063;50.892;4.702;2022-07-29T08:44:10;3.50;;;2.33;;
30247;SDS011;17063;50.892;4.702;2022-07-29T08:50:15;5.47;;;2.30;;
30247;SDS011;17063;50.892;4.702;2022-07-29T08:52:56;5.17;;;2.23;;
30247;SDS011;17063;50.892;4.702;2022-07-29T08:55:47;5.40;;;2.03;;
30247;SDS011;17063;50.892;4.702;2022-07-29T08:58:31;8.13;;;1.90;;
30247;SDS011;17063;50.892;4.702;2022-07-29T09:01:02;7.83;;;2.13;;
30247;SDS011;17063;50.892;4.702;2022-07-29T09:03:57;6.53;;;2.50;;
30247;SDS011;17063;50.892;4.702;2022-07-29T09:06:25;4.27;;;1.97;;
30247;SDS011;17063;50.892;4.702;2022-07-29T09:09:02;1.73;;;1.60;;
30247;SDS011;17063;50.892;4.702;2022-07-29T09:11:31;3.60;;;1.67;;
30247;SDS011;17063;50.892;4.702;2022-07-29T09:14:00;2.57;;;1.67;;
30247;SDS011;17063;50.892;4.702;2022-07-29T09:16:43;4.40;;;1.60;;
30247;SDS011;17063;50.892;4.702;2022-07-29T09:19:23;11.17;;;2.23;;
30247;SDS011;17063;50.892;4.702;2022-07-29T09:22:04;2.40;;;1.63;;
30247;SDS011;17063;50.892;4.702;2022-07-29T09:24:39;2.47;;;1.67;;
30247;SDS011;17063;50.892;4.702;2022-07-29T09:27:21;7.30;;;1.60;;
30247;SDS011;17063;50.892;4.702;2022-07-29T09:29:56;4.23;;;1.80;;
30247;SDS011;17063;50.892;4.702;2022-07-29T09:32:27;3.10;;;1.57;;
30247;SDS011;17063;50.892;4.702;2022-07-29T09:35:22;4.53;;;1.43;;
30247;SDS011;17063;50.892;4.702;2022-07-29T09:37:50;6.13;;;2.17;;
30247;SDS011;17063;50.892;4.702;2022-07-29T09:40:24;5.97;;;2.00;;
30247;SDS011;17063;50.892;4.702;2022-07-29T09:42:53;3.03;;;1.53;;
30247;SDS011;17063;50.892;4.702;2022-07-29T09:45:35;5.40;;;1.80;;
30247;SDS011;17063;50.892;4.702;2022-07-29T09:48:18;2.13;;;1.50;;
30247;SDS011;17063;50.892;4.702;2022-07-29T09:50:46;2.87;;;1.80;;
30247;SDS011;17063;50.892;4.702;2022-07-29T09:53:32;2.07;;;1.60;;
30247;SDS011;17063;50.892;4.702;2022-07-29T09:55:59;2.73;;;1.70;;
30247;SDS011;17063;50.892;4.702;2022-07-29T10:01:38;2.27;;;1.50;;
30247;SDS011;17063;50.892;4.702;2022-07-29T10:04:06;2.93;;;1.53;;
30247;SDS011;17063;50.892;4.702;2022-07-29T10:06:33;5.90;;;1.77;;
30247;SDS011;17063;50.892;4.702;2022-07-29T10:09:07;4.27;;;1.80;;
30247;SDS011;17063;50.892;4.702;2022-07-29T10:11:35;4.60;;;1.50;;
30247;SDS011;17063;50.892;4.702;2022-07-29T10:14:15;1.70;;;1.53;;
30247;SDS011;17063;50.892;4.702;2022-07-29T10:16:53;4.63;;;1.67;;
30247;SDS011;17063;50.892;4.702;2022-07-29T10:19:20;3.30;;;1.20;;
30247;SDS011;17063;50.892;4.702;2022-07-29T10:21:49;2.07;;;1.40;;
30247;SDS011;17063;50.892;4.702;2022-07-29T10:24:24;1.50;;;1.23;;
30247;SDS011;17063;50.892;4.702;2022-07-29T10:26:54;2.37;;;1.47;;
30247;SDS011;17063;50.892;4.702;2022-07-29T10:29:24;2.20;;;1.30;;
30247;SDS011;17063;50.892;4.702;2022-07-29T10:35:06;1.60;;;1.40;;
30247;SDS011;17063;50.892;4.702;2022-07-29T10:43:24;2.60;;;1.40;;
30247;SDS011;17063;50.892;4.702;2022-07-29T10:45:59;3.67;;;1.80;;
30247;SDS011;17063;50.892;4.702;2022-07-29T10:48:26;1.50;;;1.40;;
30247;SDS011;17063;50.892;4.702;2022-07-29T10:50:57;2.50;;;1.20;;
30247;SDS011;17063;50.892;4.702;2022-07-29T10:53:45;5.60;;;1.60;;
30247;SDS011;17063;50.892;4.702;2022-07-29T10:56:27;3.67;;;1.40;;
30247;SDS011;17063;50.892;4.702;2022-07-29T11:01:47;4.00;;;1.13;;
30247;SDS011;17063;50.892;4.702;2022-07-29T11:07:12;2.83;;;1.57;;
30247;SDS011;17063;50.892;4.702;2022-07-29T11:09:42;2.40;;;1.50;;
30247;SDS011;17063;50.892;4.702;2022-07-29T11:15:15;3.53;;;1.70;;
30247;SDS011;17063;50.892;4.702;2022-07-29T11:20:32;5.63;;;1.80;;
30247;SDS011;17063;50.892;4.702;2022-07-29T11:22:59;3.10;;;1.57;;
30247;SDS011;17063;50.892;4.702;2022-07-29T11:28:51;3.33;;;1.60;;
30247;SDS011;17063;50.892;4.702;2022-07-29T11:45:04;8.80;;;1.97;;
30247;SDS011;17063;50.892;4.702;2022-07-29T11:47:56;4.17;;;1.70;;
30247;SDS011;17063;50.892;4.702;2022-07-29T11:50:46;3.70;;;1.60;;
30247;SDS011;17063;50.892;4.702;2022-07-29T11:53:16;4.37;;;1.50;;
30247;SDS011;17063;50.892;4.702;2022-07-29T11:55:44;4.17;;;1.90;;
30247;SDS011;17063;50.892;4.702;2022-07-29T11:58:26;2.57;;;1.67;;
30247;SDS011;17063;50.892;4.702;2022-07-29T12:00:54;2.80;;;1.73;;
30247;SDS011;17063;50.892;4.702;2022-07-29T12:03:28;3.33;;;1.60;;
30247;SDS011;17063;50.892;4.702;2022-07-29T12:06:02;2.13;;;1.43;;
30247;SDS011;17063;50.892;4.702;2022-07-29T12:08:59;2.67;;;1.60;;
30247;SDS011;17063;50.892;4.702;2022-07-29T12:11:27;2.10;;;1.50;;
30247;SDS011;17063;50.892;4.702;2022-07-29T12:13:57;2.00;;;1.47;;
30247;SDS011;17063;50.892;4.702;2022-07-29T12:16:33;5.40;;;1.60;;
30247;SDS011;17063;50.892;4.702;2022-07-29T12:19:06;7.00;;;1.83;;
30247;SDS011;17063;50.892;4.702;2022-07-29T12:21:48;4.10;;;1.90;;
30247;SDS011;17063;50.892;4.702;2022-07-29T12:24:27;2.80;;;1.67;;
30247;SDS011;17063;50.892;4.702;2022-07-29T12:27:10;7.40;;;1.70;;
30247;SDS011;17063;50.892;4.702;2022-07-29T12:29:39;8.47;;;1.63;;
30247;SDS011;17063;50.892;4.702;2022-07-29T12:32:13;3.73;;;1.80;;
30247;SDS011;17063;50.892;4.702;2022-07-29T12:34:45;4.13;;;2.20;;
30247;SDS011;17063;50.892;4.702;2022-07-29T12:37:12;4.37;;;1.60;;
30247;SDS011;17063;50.892;4.702;2022-07-29T12:39:40;7.13;;;1.80;;
30247;SDS011;17063;50.892;4.702;2022-07-29T12:42:12;4.37;;;1.57;;
30247;SDS011;17063;50.892;4.702;2022-07-29T12:47:15;5.57;;;1.70;;
30247;SDS011;17063;50.892;4.702;2022-07-29T12:49:46;4.37;;;1.50;;
30247;SDS011;17063;50.892;4.702;2022-07-29T12:52:28;3.80;;;1.60;;
30247;SDS011;17063;50.892;4.702;2022-07-29T12:54:57;3.77;;;1.33;;
30247;SDS011;17063;50.892;4.702;2022-07-29T12:57:28;5.17;;;2.07;;
30247;SDS011;17063;50.892;4.702;2022-07-29T13:00:00;2.23;;;1.40;;
30247;SDS011;17063;50.892;4.702;2022-07-29T13:02:36;4.37;;;1.47;;
30247;SDS011;17063;50.892;4.702;2022-07-29T13:05:04;6.63;;;1.50;;
30247;SDS011;17063;50.892;4.702;2022-07-29T13:07:32;3.47;;;1.50;;
30247;SDS011;17063;50.892;4.702;2022-07-29T13:10:23;4.87;;;1.67;;
30247;SDS011;17063;50.892;4.702;2022-07-29T13:13:08;8.90;;;1.70;;
30247;SDS011;17063;50.892;4.702;2022-07-29T13:15:40;2.00;;;1.30;;
30247;SDS011;17063;50.892;4.702;2022-07-29T13:21:09;2.90;;;1.70;;
30247;SDS011;17063;50.892;4.702;2022-07-29T13:23:38;6.60;;;1.67;;
30247;SDS011;17063;50.892;4.702;2022-07-29T13:26:09;3.67;;;1.70;;
30247;SDS011;17063;50.892;4.702;2022-07-29T13:28:36;2.50;;;1.60;;
30247;SDS011;17063;50.892;4.702;2022-07-29T13:31:09;2.40;;;1.60;;
30247;SDS011;17063;50.892;4.702;2022-07-29T13:33:37;3.27;;;1.50;;
30247;SDS011;17063;50.892;4.702;2022-07-29T13:36:04;1.83;;;1.47;;
30247;SDS011;17063;50.892;4.702;2022-07-29T13:38:31;3.73;;;1.50;;
30247;SDS011;17063;50.892;4.702;2022-07-29T13:40:58;8.73;;;1.83;;
30247;SDS011;17063;50.892;4.702;2022-07-29T13:43:25;3.27;;;1.70;;
30247;SDS011;17063;50.892;4.702;2022-07-29T13:45:52;4.23;;;1.77;;
30247;SDS011;17063;50.892;4.702;2022-07-29T13:48:19;1.97;;;1.33;;
30247;SDS011;17063;50.892;4.702;2022-07-29T13:50:47;2.07;;;1.67;;
30247;SDS011;17063;50.892;4.702;2022-07-29T13:53:15;4.23;;;1.97;;
30247;SDS011;17063;50.892;4.702;2022-07-29T13:55:44;13.07;;;1.80;;
30247;SDS011;17063;50.892;4.702;2022-07-29T13:58:11;3.77;;;1.90;;
30247;SDS011;17063;50.892;4.702;2022-07-29T14:00:41;4.27;;;1.93;;
30247;SDS011;17063;50.892;4.702;2022-07-29T14:03:08;6.07;;;2.10;;
30247;SDS011;17063;50.892;4.702;2022-07-29T14:05:35;5.70;;;1.80;;
30247;SDS011;17063;50.892;4.702;2022-07-29T14:08:02;4.70;;;1.90;;
30247;SDS011;17063;50.892;4.702;2022-07-29T14:10:33;2.67;;;1.60;;
30247;SDS011;17063;50.892;4.702;2022-07-29T14:13:02;8.27;;;1.67;;
30247;SDS011;17063;50.892;4.702;2022-07-29T14:15:51;7.10;;;1.73;;
30247;SDS011;17063;50.892;4.702;2022-07-29T14:18:18;7.53;;;1.97;;
30247;SDS011;17063;50.892;4.702;2022-07-29T14:20:45;6.97;;;1.93;;
30247;SDS011;17063;50.892;4.702;2022-07-29T14:23:12;8.17;;;1.83;;
30247;SDS011;17063;50.892;4.702;2022-07-29T14:25:41;8.93;;;2.37;;
30247;SDS011;17063;50.892;4.702;2022-07-29T14:28:12;5.97;;;2.30;;
30247;SDS011;17063;50.892;4.702;2022-07-29T14:30:41;5.53;;;2.23;;
30247;SDS011;17063;50.892;4.702;2022-07-29T14:33:12;7.47;;;2.30;;
30247;SDS011;17063;50.892;4.702;2022-07-29T14:35:44;3.67;;;2.00;;
30247;SDS011;17063;50.892;4.702;2022-07-29T14:38:11;5.40;;;2.37;;
30247;SDS011;17063;50.892;4.702;2022-07-29T14:40:40;4.13;;;2.60;;
30247;SDS011;17063;50.892;4.702;2022-07-29T14:43:07;9.90;;;2.73;;
30247;SDS011;17063;50.892;4.702;2022-07-29T14:45:34;5.70;;;2.37;;
30247;SDS011;17063;50.892;4.702;2022-07-29T14:48:01;4.77;;;2.63;;
30247;SDS011;17063;50.892;4.702;2022-07-29T14:50:30;3.27;;;2.40;;
30247;SDS011;17063;50.892;4.702;2022-07-29T14:53:20;4.63;;;2.57;;
30247;SDS011;17063;50.892;4.702;2022-07-29T14:55:49;7.10;;;2.30;;
30247;SDS011;17063;50.892;4.702;2022-07-29T14:58:20;3.90;;;2.30;;
30247;SDS011;17063;50.892;4.702;2022-07-29T15:00:49;3.83;;;1.77;;
30247;SDS011;17063;50.892;4.702;2022-07-29T15:03:16;4.37;;;2.10;;
30247;SDS011;17063;50.892;4.702;2022-07-29T15:05:49;8.80;;;2.13;;
30247;SDS011;17063;50.892;4.702;2022-07-29T15:08:19;5.37;;;2.17;;
30247;SDS011;17063;50.892;4.702;2022-07-29T15:10:48;3.73;;;1.87;;
30247;SDS011;17063;50.892;4.702;2022-07-29T15:13:15;5.67;;;2.37;;
30247;SDS011;17063;50.892;4.702;2022-07-29T15:15:43;8.57;;;2.10;;
30247;SDS011;17063;50.892;4.702;2022-07-29T15:18:11;5.63;;;1.93;;
30247;SDS011;17063;50.892;4.702;2022-07-29T15:20:38;3.73;;;2.43;;
30247;SDS011;17063;50.892;4.702;2022-07-29T15:23:06;8.87;;;2.87;;
30247;SDS011;17063;50.892;4.702;2022-07-29T15:25:35;6.60;;;2.20;;
30247;SDS011;17063;50.892;4.702;2022-07-29T15:28:02;5.20;;;1.90;;
30247;SDS011;17063;50.892;4.702;2022-07-29T15:30:33;7.27;;;2.10;;
30247;SDS011;17063;50.892;4.702;2022-07-29T15:33:02;4.83;;;2.20;;
30247;SDS011;17063;50.892;4.702;2022-07-29T15:35:30;5.50;;;2.00;;
30247;SDS011;17063;50.892;4.702;2022-07-29T15:37:58;8.17;;;2.13;;
30247;SDS011;17063;50.892;4.702;2022-07-29T15:40:26;3.57;;;1.90;;
30247;SDS011;17063;50.892;4.702;2022-07-29T15:42:53;5.93;;;1.83;;
30247;SDS011;17063;50.892;4.702;2022-07-29T15:45:21;4.10;;;2.00;;
30247;SDS011;17063;50.892;4.702;2022-07-29T15:47:50;4.60;;;2.23;;
30247;SDS011;17063;50.892;4.702;2022-07-29T15:50:18;6.87;;;1.87;;
30247;SDS011;17063;50.892;4.702;2022-07-29T15:52:48;5.77;;;1.93;;
30247;SDS011;17063;50.892;4.702;2022-07-29T15:55:15;5.50;;;1.80;;
30247;SDS011;17063;50.892;4.702;2022-07-29T15:57:42;3.97;;;1.77;;
30247;SDS011;17063;50.892;4.702;2022-07-29T16:00:09;3.80;;;1.77;;
30247;SDS011;17063;50.892;4.702;2022-07-29T16:02:36;4.97;;;1.70;;
30247;SDS011;17063;50.892;4.702;2022-07-29T16:05:04;2.67;;;1.73;;
30247;SDS011;17063;50.892;4.702;2022-07-29T16:07:35;3.77;;;1.80;;
30247;SDS011;17063;50.892;4.702;2022-07-29T16:10:03;4.33;;;1.63;;
30247;SDS011;17063;50.892;4.702;2022-07-29T16:12:30;2.33;;;1.37;;